Frey Ranch - Fallon, Nevada Weather observations

Data are for observation ending at time listed.
 Day   Time    Ave.   Ave.  Ave.  Vector   Max.   Stn.    Total    Solar   Ave.  
  of    of     Air    Rel.  Wind   Wind    Wind   Baro.  Precip.   Rad.    Soil  
Year   Day     Temp.  Hum.  Speed  Dir.    Gust   Pres.                    Temp. 
2014   (PST)    F      %     mph   deg.    mph     mb.     in.     W/m2     F   
------------------------------------------------------------------------------
 272   20:40   53.8    73    0.5    74      2.7   999.0    0.00       0    81.0
 272   20:50   53.8    75    0.7    76      2.5   999.0    0.00       0    81.8
 272   21:00   54.2    74    0.2    76      1.2   999.0    0.00       0    82.7
 272   21:10   54.5    72    1.8    94      3.9   999.0    0.00       0    83.5
 272   21:20   54.7    72    1.1    95      2.9   999.0    0.00       0    84.4
 272   21:30   54.3    72    0.1    99      0.8   999.0    0.00       0    85.3
 272   21:40   54.5    74    1.2    66      3.1   999.0    0.00       0    86.2
 272   21:50   54.6    70    1.2    47      3.5   999.0    0.00       0    87.1
 272   22:00   54.0    69    2.0    62      3.3   999.0    0.00       0    88.1
 272   22:10   54.0    68    1.8    72      3.7   999.0    0.00       0    88.9
 272   22:20   54.2    67    1.9    76      3.7   999.0    0.00       0    89.7
 272   22:30   54.3    67    0.6    85      1.8   999.0    0.00       0    90.4
 272   22:40   53.9    68    0.0    77      0.7   999.0    0.00       0    91.0
 272   22:50   54.1    68    0.7    65      2.6   999.0    0.00       0    91.5
 272   23:00   51.8    74    0.8    71      2.6   999.0    0.00       0    92.0
 272   23:10   51.4    75    2.2    95      5.3   999.0    0.00       0    92.3
 272   23:20   51.2    75    4.2   102      5.7   999.0    0.00       0    92.6
 272   23:30   51.0    75    3.8   109      4.9   999.0    0.00       0    92.9
 272   23:40   52.7    70    2.7   123      3.8   999.0    0.00       0    93.1
 272   23:50   54.0    67    2.9   151      3.7   999.0    0.00       0    93.1
 273    0:00   53.5    68    1.2   154      2.7   999.0    0.00       0    93.2
 273    0:10   53.3    69    0.9    38      3.3   999.0    0.00       0    93.1
 273    0:20   52.7    70    2.0    62      4.3   999.0    0.00       0    93.1
 273    0:30   51.8    74    2.0    66      4.2   999.0    0.00       0    93.0
 273    0:40   51.4    73    1.7    65      4.5   999.0    0.00       0    92.9
 273    0:50   51.5    72    1.4    58      3.5   999.0    0.00       0    92.8
 273    1:00   50.9    75    0.5   317      3.4   999.0    0.00       0    92.6
 273    1:10   49.2    80    2.8   318      3.8   999.0    0.00       0    92.5
 273    1:20   50.0    79    1.2   336      2.9   999.0    0.00       0    92.3
 273    1:30   50.6    78    1.0   343      3.6   999.0    0.00       0    92.1
 273    1:40   50.3    78    0.3    78      2.9   999.0    0.00       0    91.9
 273    1:50   50.6    78    1.3    77      3.1   999.0    0.00       0    91.7
 273    2:00   52.2    72    0.7   102      1.8   999.0    0.00       0    91.5
 273    2:10   51.1    74    0.1   102      1.2   999.0    0.00       0    91.2
 273    2:20   49.8    76    1.3   180      5.6   999.0    0.00       0    90.9
 273    2:30   49.4    77    3.1   200      5.1   999.0    0.00       0    90.6
 273    2:40   48.7    79    2.3   219      3.9   999.0    0.00       0    90.1
 273    2:50   48.9    80    0.2   300      2.0   999.0    0.00       0    89.8
 273    3:00   49.4    78    1.6    96      4.0   999.0    0.00       0    89.6
 273    3:10   49.0    78    0.0     0      0.0   999.0    0.00       0    89.5
 273    3:20   48.9    79    1.7   309      3.1   999.0    0.00       0    89.3
 273    3:30   48.3    79    0.7   298      2.9   999.0    0.00       0    89.1
 273    3:40   48.3    80    0.6   292      3.3   999.0    0.00       0    88.9
 273    3:50   48.7    79    1.9   287      2.7   999.0    0.00       0    88.6
 273    4:00   49.0    79    2.0   285      3.1   999.0    0.00       0    88.3
 273    4:10   48.0    79    1.3    98      4.2   999.0    0.00       0    88.0
 273    4:20   47.4    80    0.6   129      2.7   999.0    0.00       0    87.7
 273    4:30   47.5    81    0.0     0      0.0   999.0    0.00       0    87.3
 273    4:40   47.1    81    0.0     0      0.0   999.0    0.00       0    86.9
 273    4:50   47.5    81    0.2    43      1.7   999.0    0.00       0    86.5
 273    5:00   46.8    81    0.0     0      0.0   999.0    0.00       0    86.1
 273    5:10   47.1    81    0.1    29      1.8   999.0    0.00       0    85.6
 273    5:20   46.3    82    0.0     8      0.6   999.0    0.00       0    85.1
 273    5:30   45.4    83    0.0     0      0.0   999.0    0.00       1    84.7
 273    5:40   44.3    84    0.0     0      0.0   999.0    0.00       3    84.1
 273    5:50   45.6    84    0.0     0      0.0   999.0    0.00       7    83.7
 273    6:00   46.7    83    0.0     0      0.0   999.0    0.00      21    83.3
 273    6:10   47.6    81    0.0     0      0.0   999.0    0.00      48    82.9
 273    6:20   48.1    80    0.0     0      0.0   999.0    0.00      82    82.4
 273    6:30   49.2    79    0.0     0      0.0   999.0    0.00     120    81.9
 273    6:40   50.6    78    0.3   247      3.3   999.0    0.00     153    81.3
 273    6:50   52.3    77    2.0   261      4.0   999.0    0.00     183    80.7
 273    7:00   53.8    75    1.2   254      3.8   999.0    0.00     216    80.2
 273    7:10   56.4    71    0.3   178      2.6   999.0    0.00     248    79.8
 273    7:20   56.9    69    0.5   192      2.6   999.0    0.00     281    79.5
 273    7:30   58.0    67    0.0   261      0.9   999.0    0.00     315    79.3
 273    7:40   59.0    67    0.4   313      4.6   999.0    0.00     350    79.2
 273    7:50   59.9    64    3.1   319      7.1   999.0    0.00     380    79.6
 273    8:00   61.0    60    2.4   334      5.7   999.0    0.00     420    80.0
 273    8:10   61.9    58    3.0   313      6.3   999.0    0.00     421    80.3
 273    8:20   62.8    57    1.2   331      3.5   999.0    0.00     467    80.5
 273    8:30   63.9    54    1.2   302      3.3   999.0    0.00     483    80.7
 273    8:40   64.6    52    0.9   344      3.5   999.0    0.00     537    80.7
 273    8:50   64.9    53    2.1    93      6.2   999.0    0.00     543    80.8
 273    9:00   63.6    54    3.0   111      6.9   999.0    0.00     595    80.9
 273    9:10   65.4    50    0.8    82      3.1   999.0    0.00     616    81.1
 273    9:20   65.2    50    2.9    94      5.2   999.0    0.00     630    81.1
 273    9:30   65.6    50    1.8    65      5.3   999.0    0.00     678    81.2
 273    9:40   66.0    49    1.2    70      4.2   999.0    0.00     686    81.1
 273    9:50   66.5    47    1.9    29      7.0   999.0    0.00     712    81.1
 273   10:00   66.7    46    4.1    54      7.2   999.0    0.00     738    80.9
 273   10:10   67.8    42    2.4    60      5.7   999.0    0.00     765    80.6
 273   10:20   68.5    41    2.6    63      5.7   999.0    0.00     835    80.2
 273   10:30   68.9    40    2.0   340      6.2   999.0    0.00     673    79.8
 273   10:40   67.0    42    0.8   328      5.9   999.0    0.00     342    79.2
 273   10:50   67.6    41    0.5   318      6.0   999.0    0.00     770    78.6
 273   11:00   68.7    38    1.0   310      8.0   999.0    0.00     790    77.8
 273   11:10   68.6    40    2.4   314      9.2   999.0    0.00     832    77.1
 273   11:20   69.0    39    1.9   301      9.3   999.0    0.00     751    76.5
 273   11:30   69.1    37    0.6   318      4.9   999.0    0.00     886    75.8
 273   11:40   69.6    37    1.7   315      6.3   999.0    0.00     906    75.2
 273   11:50   69.8    37    2.1   324      8.8   999.0    0.00     785    74.5
 273   12:00   69.3    37    2.7   320     10.3   999.0    0.00     470    73.7
 273   12:10   69.4    36    0.2   354      5.1   999.0    0.00     642    72.9
 273   12:20   69.9    34    0.5   310      5.9   999.0    0.00     492    72.1
 273   12:30   69.9    36    1.0   323      7.9   999.0    0.00     695    71.4
 273   12:40   71.2    35    1.6   326      7.4   999.0    0.00     719    70.7
 273   12:50   71.3    33    0.4    55      5.6   999.0    0.00     774    70.1
 273   13:00   72.0    32    0.7    16      6.8   999.0    0.00     672    69.5
 273   13:10   71.1    34    0.7   335      4.7   999.0    0.00     489    69.0
 273   13:20   71.5    31    0.6   324      4.3   999.0    0.00     692    68.6
 273   13:30   72.5    30    0.7   322      5.8   999.0    0.00     632    68.1
 273   13:40   72.2    30    2.1   323      9.3   999.0    0.00     828    67.8
 273   13:50   72.5    32    2.0   329     10.7   999.0    0.00     566    67.4
 273   14:00   70.3    34    0.5   312      5.6   999.0    0.00     286    67.2
 273   14:10   70.7    34    0.6   324      7.6   999.0    0.00     505    66.9
 273   14:20   70.4    34    1.0   326      8.1   999.0    0.00     179    66.7
 273   14:30   69.0    34    0.5   345      4.7   999.0    0.00     148    66.6
 273   14:40   70.0    32    0.5   345      6.0   999.0    0.00     322    66.5
 273   14:50   70.9    30    0.8     4      5.4   999.0    0.00     446    66.5
 273   15:00   71.7    29    0.9     2      5.9   999.0    0.00     430    66.6
 273   15:10   71.3    28    1.3   348      7.2   999.0    0.00     400    66.7
 273   15:20   72.0    27    1.5     7      8.1   999.0    0.00     435    66.8
 273   15:30   72.1    27    1.3   347      7.0   999.0    0.00     395    66.9
 273   15:40   71.7    27    0.7   345      6.4   999.0    0.00     356    67.0
 273   15:50   72.3    27    0.3   352      4.1   999.0    0.00     319    67.1
 273   16:00   70.7    27    0.8   337      6.9   999.0    0.00     104    67.2
 273   16:10   68.8    29    0.2   323      5.0   999.0    0.00      76    67.3
 273   16:20   67.9    32    0.0   354      1.3   999.0    0.00      67    67.4
 273   16:30   67.2    32    0.1   319      2.6   999.0    0.00      55    67.5
 273   16:40   66.8    32    0.0   319      2.2   999.0    0.00      53    67.7
 273   16:50   66.8    32    0.0    54      0.5   999.0    0.00      49    67.9
 273   17:00   66.6    34    0.0    29      0.5   999.0    0.00      40    68.1
 273   17:10   65.7    37    0.0     0      0.0   999.0    0.00      25    68.4
 273   17:20   64.7    38    0.0     0      0.0   999.0    0.00      10    68.7
 273   17:30   64.1    38    0.0     0      0.0   999.0    0.00       4    69.0
 273   17:40   63.7    39    0.0   116      0.9   999.0    0.00       1    69.4
 273   17:50   62.9    40    0.0    15      2.4   999.0    0.00       0    69.8
 273   18:00   61.4    46    0.0     0      0.0   999.0    0.00       0    70.3
 273   18:10   60.9    46    0.0     0      0.0   999.0    0.00       0    70.8
 273   18:20   61.9    44    0.0     0      0.0   999.0    0.00       0    71.4
 273   18:30   62.1    44    0.0     0      0.0   999.0    0.00       0    72.0
 273   18:40   62.1    44    0.0     0      0.0   999.0    0.00       0    72.6
 273   18:50   62.3    41    2.6     8     10.5   999.0    0.00       0    73.3
 273   19:00   63.1    37    6.2     6     13.3   999.0    0.00       0    74.0
 273   19:10   62.5    36    6.1     5     14.0   999.0    0.00       0    74.7
 273   19:20   61.7    37    6.5     8     13.4   999.0    0.00       0    75.5
 273   19:30   60.9    39    6.7     5     12.0   999.0    0.00       0    76.2
 273   19:40   60.3    39    7.4     7     13.8   999.0    0.00       0    77.0
 273   19:50   59.7    39    6.8     2     13.7   999.0    0.00       0    77.8
 273   20:00   59.1    39    6.3   360     11.4   999.0    0.00       0    78.6
 273   20:10   58.3    39    6.0     8     12.0   999.0    0.00       0    79.5
 273   20:20   57.3    39    5.1     2     10.7   999.0    0.00       0    80.4
 273   20:30   56.6    38    6.1     1     12.0   999.0    0.00       0    81.3

Return to Frey Ranch - Fallon, Nevada graphs page.


Western Regional Climate Center,wrcc@dri.edu